Time;durP1;ratioP1;P1;durP2;ratioP2;P2;SDS_P1;SDS_P2;PMS_P1;PMS_P2;Temp;Humidity;BMP_temperature;BMP_pressure;BME280_temperature;BME280_humidity;BME280_pressure;Samples;Min_cycle;Max_cycle;Signal;HPM_P1;HPM_P2
2021/10/15 00:01:07;;;;;;;10.77;5.45;;;;;;;;;;5083119;28;20043;-57
2021/10/15 00:03:32;;;;;;;6.97;4.97;;;;;;;;;;5117214;28;20039;-57
2021/10/15 00:05:58;;;;;;;6.82;4.65;;;;;;;;;;5117298;28;20034;-57
2021/10/15 00:08:23;;;;;;;7.32;5.30;;;;;;;;;;5117252;28;20032;-57
2021/10/15 00:10:49;;;;;;;7.20;4.90;;;;;;;;;;5117283;28;20030;-57
2021/10/15 00:13:14;;;;;;;7.30;5.45;;;;;;;;;;5116933;28;20051;-57
2021/10/15 00:15:40;;;;;;;6.85;4.03;;;;;;;;;;5117556;28;20031;-62
2021/10/15 00:18:05;;;;;;;5.65;4.63;;;;;;;;;;5117237;28;20040;-62
2021/10/15 00:20:31;;;;;;;8.05;5.07;;;;;;;;;;5117378;28;20081;-62
2021/10/15 00:22:56;;;;;;;5.32;4.65;;;;;;;;;;5116868;28;20090;-61
2021/10/15 00:25:22;;;;;;;8.85;4.93;;;;;;;;;;5116817;28;20047;-61
2021/10/15 00:27:48;;;;;;;5.78;4.30;;;;;;;;;;5116624;28;20063;-56
2021/10/15 00:30:13;;;;;;;8.48;4.25;;;;;;;;;;5098827;28;20028;-56
2021/10/15 00:32:39;;;;;;;8.60;4.88;;;;;;;;;;5116900;28;20073;-57
2021/10/15 00:35:04;;;;;;;5.60;4.40;;;;;;;;;;5117323;28;20038;-56
2021/10/15 00:37:30;;;;;;;6.63;4.93;;;;;;;;;;5116815;28;20118;-57
2021/10/15 00:39:55;;;;;;;8.43;4.88;;;;;;;;;;5116993;28;20371;-57
2021/10/15 00:42:21;;;;;;;4.07;3.22;;;;;;;;;;5116838;28;20042;-56
2021/10/15 00:44:46;;;;;;;6.57;4.50;;;;;;;;;;5116858;28;20027;-56
2021/10/15 00:47:12;;;;;;;6.78;4.80;;;;;;;;;;5116578;28;20067;-56
2021/10/15 00:49:38;;;;;;;5.05;4.43;;;;;;;;;;5116746;28;20031;-56
2021/10/15 00:52:05;;;;;;;5.40;4.55;;;;;;;;;;5116592;28;20042;-56
2021/10/15 00:54:30;;;;;;;3.80;3.42;;;;;;;;;;5116233;28;20028;-56
2021/10/15 00:56:56;;;;;;;5.47;4.68;;;;;;;;;;5116138;28;20517;-56
2021/10/15 00:59:22;;;;;;;7.45;4.78;;;;;;;;;;5116649;28;20055;-56
2021/10/15 01:01:47;;;;;;;6.20;4.25;;;;;;;;;;5116226;28;20085;-56
2021/10/15 01:04:13;;;;;;;7.70;4.47;;;;;;;;;;5115990;28;20110;-56
2021/10/15 01:06:58;;;;;;;5.82;4.25;;;;;;;;;;5116112;28;20046;-58
2021/10/15 01:09:26;;;;;;;5.53;4.07;;;;;;;;;;5098451;28;20411;-57
2021/10/15 01:11:57;;;;;;;7.20;4.50;;;;;;;;;;5116211;28;20042;-58
2021/10/15 01:26:25;;;;;;;6.82;4.40;;;;;;;;;;5116528;28;20093;-57
2021/10/15 01:32:32;;;;;;;4.90;3.45;;;;;;;;;;5116356;28;20058;-57
2021/10/15 01:38:20;;;;;;;4.55;4.15;;;;;;;;;;5116223;28;20109;-62
2021/10/15 01:44:22;;;;;;;6.25;4.63;;;;;;;;;;5116094;28;20039;-62
2021/10/15 01:50:25;;;;;;;6.18;4.07;;;;;;;;;;5115915;28;20050;-62
2021/10/15 02:03:25;;;;;;;4.78;4.30;;;;;;;;;;5115709;28;20121;-56
2021/10/15 02:09:25;;;;;;;4.68;4.15;;;;;;;;;;5115507;28;20081;-62
2021/10/15 02:19:07;;;;;;;5.38;4.60;;;;;;;;;;5112356;28;20054;-62
2021/10/15 02:25:22;;;;;;;6.40;5.00;;;;;;;;;;5094886;28;20637;-56
2021/10/15 02:31:23;;;;;;;7.15;5.05;;;;;;;;;;5094763;28;20050;-62
2021/10/15 02:37:24;;;;;;;6.32;4.63;;;;;;;;;;5094343;28;20113;-56
2021/10/15 02:43:25;;;;;;;6.28;4.57;;;;;;;;;;5094580;28;20077;-62
2021/10/15 02:49:25;;;;;;;4.15;3.85;;;;;;;;;;5094470;28;20106;-62
2021/10/15 02:55:26;;;;;;;5.72;3.75;;;;;;;;;;5094348;28;20066;-61
2021/10/15 03:01:26;;;;;;;6.95;3.97;;;;;;;;;;5094280;28;20433;-61
2021/10/15 03:07:27;;;;;;;4.80;3.67;;;;;;;;;;5094216;28;20082;-62
2021/10/15 03:13:28;;;;;;;4.07;3.35;;;;;;;;;;5094131;28;20027;-61
2021/10/15 03:30:09;;;;;;;4.05;3.70;;;;;;;;;;5114299;28;20474;-61
2021/10/15 03:36:09;;;;;;;3.75;3.33;;;;;;;;;;5114171;28;20026;-61
2021/10/15 03:42:10;;;;;;;3.83;3.53;;;;;;;;;;5114202;28;20115;-61
2021/10/15 03:48:11;;;;;;;5.35;3.67;;;;;;;;;;5114140;28;20089;-61
2021/10/15 03:58:09;;;;;;;4.03;3.63;;;;;;;;;;5113714;28;20119;-62
2021/10/15 04:04:09;;;;;;;3.75;3.22;;;;;;;;;;5113994;28;20529;-62
2021/10/15 04:10:09;;;;;;;3.10;2.90;;;;;;;;;;5113936;28;20093;-62
2021/10/15 04:16:09;;;;;;;3.83;3.53;;;;;;;;;;5113725;28;20502;-62
2021/10/15 04:25:33;;;;;;;3.45;3.22;;;;;;;;;;5113540;28;20049;-61
2021/10/15 04:31:33;;;;;;;3.13;2.90;;;;;;;;;;5113742;28;20109;-62
2021/10/15 04:37:34;;;;;;;3.33;3.13;;;;;;;;;;5113460;28;20134;-62
2021/10/15 04:43:35;;;;;;;4.22;3.33;;;;;;;;;;5117305;28;20084;-62
2021/10/15 04:49:36;;;;;;;3.13;2.92;;;;;;;;;;5117363;28;20129;-61
2021/10/15 04:55:37;;;;;;;4.65;2.83;;;;;;;;;;5117344;28;20430;-61
2021/10/15 05:01:38;;;;;;;3.38;2.45;;;;;;;;;;5116668;28;20055;-61
2021/10/15 05:07:40;;;;;;;3.42;3.13;;;;;;;;;;5116552;28;20063;-61
2021/10/15 05:13:40;;;;;;;2.90;2.60;;;;;;;;;;5116710;28;20371;-61
2021/10/15 05:19:40;;;;;;;2.28;2.17;;;;;;;;;;5116606;28;20085;-61
2021/10/15 05:28:58;;;;;;;3.67;3.45;;;;;;;;;;5116487;28;20047;-61
2021/10/15 05:34:59;;;;;;;5.32;2.80;;;;;;;;;;5116537;28;20141;-61
2021/10/15 05:41:00;;;;;;;3.53;3.15;;;;;;;;;;5115877;28;20383;-61
2021/10/15 05:47:04;;;;;;;3.35;2.95;;;;;;;;;;5116061;28;20090;-61
2021/10/15 05:53:17;;;;;;;4.82;3.60;;;;;;;;;;5115993;28;20069;-61
2021/10/15 06:46:28;;;;;;;;;;;;;;;;;;5090149;28;20483;-61
2021/10/15 06:52:49;;;;;;;3.40;3.10;;;;;;;;;;5094471;28;20105;-61
2021/10/15 06:58:49;;;;;;;3.50;3.15;;;;;;;;;;5094100;28;20031;-61
2021/10/15 07:04:50;;;;;;;7.13;3.92;;;;;;;;;;5093710;28;20050;-57
2021/10/15 07:07:16;;;;;;;3.20;3.00;;;;;;;;;;5093671;28;20040;-57
2021/10/15 07:09:41;;;;;;;4.35;3.17;;;;;;;;;;5093517;28;20032;-57
2021/10/15 07:12:07;;;;;;;3.28;2.75;;;;;;;;;;5092252;28;20068;-57
2021/10/15 07:14:32;;;;;;;3.05;2.75;;;;;;;;;;5093710;28;20031;-58
2021/10/15 07:16:58;;;;;;;4.32;3.55;;;;;;;;;;5093694;28;20043;-57
2021/10/15 07:19:23;;;;;;;4.47;3.40;;;;;;;;;;5093547;28;20379;-57
2021/10/15 07:21:49;;;;;;;5.05;3.05;;;;;;;;;;5093798;28;20032;-57
2021/10/15 07:24:15;;;;;;;3.35;3.10;;;;;;;;;;5093229;28;20080;-57
2021/10/15 07:26:41;;;;;;;3.47;3.15;;;;;;;;;;5093594;28;20063;-57
2021/10/15 07:32:56;;;;;;;3.63;3.33;;;;;;;;;;5093673;28;20058;-57
2021/10/15 07:38:57;;;;;;;3.67;3.30;;;;;;;;;;5093823;28;20066;-57
2021/10/15 07:44:58;;;;;;;4.15;3.70;;;;;;;;;;5093571;28;20035;-57
2021/10/15 07:54:10;;;;;;;3.88;3.47;;;;;;;;;;5093455;28;20054;-57
2021/10/15 08:00:11;;;;;;;3.08;2.78;;;;;;;;;;5093731;28;20098;-57
2021/10/15 08:06:12;;;;;;;3.70;2.65;;;;;;;;;;5093621;28;20027;-57
2021/10/15 08:12:13;;;;;;;3.95;2.80;;;;;;;;;;5093577;28;20174;-57
2021/10/15 08:18:14;;;;;;;4.28;2.95;;;;;;;;;;5097095;28;20089;-57
2021/10/15 08:24:15;;;;;;;3.92;3.47;;;;;;;;;;5097314;28;20165;-57
2021/10/15 08:34:10;;;;;;;2.20;1.98;;;;;;;;;;5097115;28;20039;-57
2021/10/15 08:40:11;;;;;;;3.08;2.75;;;;;;;;;;5096974;28;20035;-60
2021/10/15 08:46:11;;;;;;;2.92;2.70;;;;;;;;;;5096851;28;20031;-60
2021/10/15 08:55:59;;;;;;;3.80;3.13;;;;;;;;;;5096654;28;20031;-60
2021/10/15 08:58:45;;;;;;;5.20;3.47;;;;;;;;;;5078049;28;20044;-60
2021/10/15 09:01:10;;;;;;;4.55;3.05;;;;;;;;;;5096382;28;20032;-63
2021/10/15 09:03:36;;;;;;;3.03;2.72;;;;;;;;;;5096006;28;20189;-60
2021/10/15 09:06:05;;;;;;;3.08;2.83;;;;;;;;;;5095809;28;20032;-59
2021/10/15 09:08:46;;;;;;;4.03;2.42;;;;;;;;;;5095731;28;20028;-59
2021/10/15 09:11:30;;;;;;;4.25;3.10;;;;;;;;;;5095699;28;20040;-57
2021/10/15 09:14:03;;;;;;;3.30;2.78;;;;;;;;;;5095616;28;20043;-57
2021/10/15 09:16:29;;;;;;;2.35;1.85;;;;;;;;;;5095455;28;20122;-57
2021/10/15 09:22:31;;;;;;;2.50;2.30;;;;;;;;;;5096158;28;20085;-57
2021/10/15 09:28:38;;;;;;;3.40;2.75;;;;;;;;;;5096037;28;20093;-57
2021/10/15 09:31:04;;;;;;;4.75;2.90;;;;;;;;;;5095758;28;20031;-57
2021/10/15 09:33:31;;;;;;;2.65;2.40;;;;;;;;;;5077224;28;20024;-57
2021/10/15 09:36:06;;;;;;;2.50;2.17;;;;;;;;;;5095226;28;20040;-57
2021/10/15 09:38:32;;;;;;;2.13;1.92;;;;;;;;;;5095023;28;20442;-57
2021/10/15 09:40:58;;;;;;;2.35;2.15;;;;;;;;;;5095157;28;20032;-57
2021/10/15 09:43:32;;;;;;;2.78;2.58;;;;;;;;;;5095046;28;20032;-57
2021/10/15 09:45:57;;;;;;;2.25;1.88;;;;;;;;;;5094778;28;20123;-57
2021/10/15 09:48:24;;;;;;;3.08;2.47;;;;;;;;;;5095019;28;20488;-57
2021/10/15 09:51:10;;;;;;;3.45;2.58;;;;;;;;;;5076659;28;20043;-58
2021/10/15 09:57:31;;;;;;;2.50;2.30;;;;;;;;;;5095309;28;20077;-58
2021/10/15 10:04:05;;;;;;;2.35;2.15;;;;;;;;;;5095359;28;20019;-58
2021/10/15 10:10:06;;;;;;;2.75;2.55;;;;;;;;;;5095248;28;20030;-58
2021/10/15 10:16:08;;;;;;;2.53;2.33;;;;;;;;;;5095135;28;20030;-58
2021/10/15 10:22:10;;;;;;;2.10;1.90;;;;;;;;;;5094984;28;20085;-58
2021/10/15 10:28:15;;;;;;;2.55;1.98;;;;;;;;;;5094917;28;20570;-58
2021/10/15 10:34:26;;;;;;;2.70;2.42;;;;;;;;;;5094770;28;20483;-58
2021/10/15 10:44:31;;;;;;;2.58;2.28;;;;;;;;;;5094401;28;20039;-58
2021/10/15 10:50:32;;;;;;;2.40;2.20;;;;;;;;;;5094497;28;20579;-58
2021/10/15 10:59:51;;;;;;;2.65;2.45;;;;;;;;;;5094096;28;20074;-58
2021/10/15 11:05:52;;;;;;;1.95;1.85;;;;;;;;;;5094291;28;20027;-58
2021/10/15 11:11:52;;;;;;;2.15;1.88;;;;;;;;;;5094181;28;20059;-58
2021/10/15 11:17:53;;;;;;;1.85;1.75;;;;;;;;;;5093852;28;20079;-58
2021/10/15 11:34:39;;;;;;;2.53;2.28;;;;;;;;;;5031945;28;20374;-66
2021/10/15 11:44:51;;;;;;;3.00;2.45;;;;;;;;;;5031669;28;20595;-61
2021/10/15 12:01:50;;;;;;;2.60;1.95;;;;;;;;;;4996137;28;20093;-60
2021/10/15 12:07:50;;;;;;;2.95;2.17;;;;;;;;;;4976758;28;20109;-60
2021/10/15 12:13:50;;;;;;;2.90;2.20;;;;;;;;;;4976669;28;20037;-60
2021/10/15 12:19:53;;;;;;;3.45;2.80;;;;;;;;;;4976521;28;20037;-61
2021/10/15 12:25:53;;;;;;;2.28;1.73;;;;;;;;;;4995664;28;20564;-61
2021/10/15 12:39:21;;;;;;;3.08;2.10;;;;;;;;;;5056804;28;20119;-61
2021/10/15 13:34:47;;;;;;;2.38;2.17;;;;;;;;;;5091459;28;20287;-59
2021/10/15 13:37:17;;;;;;;4.57;3.53;;;;;;;;;;5094896;28;20048;-59
2021/10/15 13:39:47;;;;;;;4.30;2.92;;;;;;;;;;5094230;28;20032;-59
2021/10/15 13:55:10;;;;;;;3.33;2.97;;;;;;;;;;5095552;28;20031;-60
2021/10/15 14:01:17;;;;;;;3.88;3.08;;;;;;;;;;5095200;28;20403;-62
2021/10/15 14:07:17;;;;;;;2.97;2.60;;;;;;;;;;5095337;28;20039;-61
2021/10/15 14:13:19;;;;;;;4.03;3.63;;;;;;;;;;5094449;28;20074;-61
2021/10/15 14:19:20;;;;;;;3.38;3.00;;;;;;;;;;5095132;28;20027;-61
2021/10/15 14:25:20;;;;;;;3.58;2.88;;;;;;;;;;5095003;28;20097;-62
2021/10/15 14:31:21;;;;;;;4.88;3.20;;;;;;;;;;5094887;28;20105;-62
2021/10/15 14:41:04;;;;;;;4.35;3.95;;;;;;;;;;5094698;28;20055;-62
2021/10/15 14:54:07;;;;;;;5.13;4.07;;;;;;;;;;6196085;22;1453227;-60
2021/10/15 14:56:33;;;;;;;9.23;4.80;;;;;;;;;;6254986;23;20344;-59
2021/10/15 14:58:59;;;;;;;9.07;5.80;;;;;;;;;;6253259;23;20027;-60
2021/10/15 15:01:24;;;;;;;6.95;4.78;;;;;;;;;;6254205;23;20064;-60
2021/10/15 15:03:50;;;;;;;8.55;5.40;;;;;;;;;;6254281;22;19992;-58
2021/10/15 15:06:15;;;;;;;8.98;6.82;;;;;;;;;;6253919;23;20004;-61
2021/10/15 15:08:41;;;;;;;6.85;4.60;;;;;;;;;;6253995;22;20083;-60
2021/10/15 15:11:07;;;;;;;6.90;5.72;;;;;;;;;;6253687;22;20007;-60
2021/10/15 15:13:34;;;;;;;6.78;5.55;;;;;;;;;;6254685;22;19996;-60
2021/10/15 15:16:03;;;;;;;6.18;5.22;;;;;;;;;;6254617;22;20011;-60
2021/10/15 15:18:29;;;;;;;7.20;5.05;;;;;;;;;;6254561;22;20423;-60
2021/10/15 15:21:02;;;;;;;7.97;5.07;;;;;;;;;;6254459;23;20004;-60
2021/10/15 15:23:29;;;;;;;6.80;5.22;;;;;;;;;;6253906;23;20004;-60
2021/10/15 15:25:55;;;;;;;5.78;4.63;;;;;;;;;;6252522;23;20000;-60
2021/10/15 15:28:21;;;;;;;4.10;3.65;;;;;;;;;;6254212;22;20004;-60
2021/10/15 15:30:47;;;;;;;5.10;3.35;;;;;;;;;;6254242;22;19996;-60
2021/10/15 15:33:15;;;;;;;4.78;3.97;;;;;;;;;;6250331;22;20092;-60
2021/10/15 15:35:41;;;;;;;6.15;4.10;;;;;;;;;;6247708;23;20058;-60
2021/10/15 15:38:07;;;;;;;7.60;4.50;;;;;;;;;;6249319;22;20011;-60
2021/10/15 15:40:35;;;;;;;5.53;4.90;;;;;;;;;;6249585;23;20003;-60
2021/10/15 15:43:01;;;;;;;6.82;4.22;;;;;;;;;;6249070;22;20004;-61
2021/10/15 15:45:27;;;;;;;4.80;4.40;;;;;;;;;;6249302;22;19999;-60
2021/10/15 15:47:54;;;;;;;7.03;4.55;;;;;;;;;;6249501;23;20039;-60
2021/10/15 15:50:20;;;;;;;6.00;4.35;;;;;;;;;;6248996;22;20003;-59
2021/10/15 15:52:47;;;;;;;6.22;4.82;;;;;;;;;;6248358;23;20020;-60
2021/10/15 15:55:17;;;;;;;5.22;4.25;;;;;;;;;;6240402;23;20012;-59
2021/10/15 15:57:47;;;;;;;4.38;3.75;;;;;;;;;;6242823;23;20004;-60
2021/10/15 16:00:16;;;;;;;5.38;4.30;;;;;;;;;;6242621;23;20016;-60
2021/10/15 16:02:42;;;;;;;6.47;4.85;;;;;;;;;;6242078;22;20031;-59
2021/10/15 16:05:09;;;;;;;6.82;5.07;;;;;;;;;;6242364;23;20019;-59
2021/10/15 16:07:34;;;;;;;5.32;4.47;;;;;;;;;;6240915;23;20129;-59
2021/10/15 16:10:00;;;;;;;7.55;5.88;;;;;;;;;;6240443;23;20038;-59
2021/10/15 16:12:26;;;;;;;6.43;4.55;;;;;;;;;;6241260;23;20007;-60
2021/10/15 16:14:52;;;;;;;7.88;5.80;;;;;;;;;;6241810;23;20012;-60
2021/10/15 16:17:18;;;;;;;24.13;11.38;;;;;;;;;;6242733;22;20004;-60
2021/10/15 16:19:43;;;;;;;15.20;7.97;;;;;;;;;;6240653;23;20014;-60
2021/10/15 16:22:09;;;;;;;15.70;8.82;;;;;;;;;;6242227;23;20058;-60
2021/10/15 16:24:34;;;;;;;15.13;8.02;;;;;;;;;;6242113;22;20023;-60
2021/10/15 16:27:00;;;;;;;10.02;6.20;;;;;;;;;;6242085;23;20471;-59
2021/10/15 16:29:26;;;;;;;11.98;6.95;;;;;;;;;;6242735;23;20008;-66
2021/10/15 16:31:58;;;;;;;7.78;5.93;;;;;;;;;;6242608;22;20079;-66
2021/10/15 16:34:25;;;;;;;9.52;5.82;;;;;;;;;;6243523;23;20432;-65
2021/10/15 16:36:51;;;;;;;9.07;5.80;;;;;;;;;;6244574;22;20490;-65
2021/10/15 16:39:17;;;;;;;9.65;6.10;;;;;;;;;;6244379;23;20094;-65
2021/10/15 16:41:43;;;;;;;9.18;6.25;;;;;;;;;;6243132;22;20386;-66
2021/10/15 16:44:08;;;;;;;9.18;6.22;;;;;;;;;;6242545;23;20421;-66
2021/10/15 16:46:34;;;;;;;7.18;5.00;;;;;;;;;;6242768;22;20000;-66
2021/10/15 16:48:59;;;;;;;8.25;5.78;;;;;;;;;;6243109;23;20038;-66
2021/10/15 16:51:25;;;;;;;6.95;5.15;;;;;;;;;;6242536;22;20420;-66
2021/10/15 16:53:51;;;;;;;10.90;6.82;;;;;;;;;;6242120;22;20012;-66
2021/10/15 16:56:16;;;;;;;12.18;7.50;;;;;;;;;;6243423;23;20005;-66
2021/10/15 16:58:43;;;;;;;10.57;7.22;;;;;;;;;;6241863;23;20004;-66
2021/10/15 17:01:09;;;;;;;8.48;6.95;;;;;;;;;;6241163;22;19996;-66
2021/10/15 17:03:34;;;;;;;10.70;7.65;;;;;;;;;;6240973;22;20063;-66
2021/10/15 17:06:00;;;;;;;11.45;6.85;;;;;;;;;;6241009;23;20463;-66
2021/10/15 17:08:25;;;;;;;8.68;5.57;;;;;;;;;;6241846;23;20032;-66
2021/10/15 17:10:51;;;;;;;12.90;8.55;;;;;;;;;;6242410;22;20071;-66
2021/10/15 17:13:17;;;;;;;10.55;7.25;;;;;;;;;;6242124;23;20053;-67
2021/10/15 17:15:43;;;;;;;10.55;7.80;;;;;;;;;;6243195;22;20004;-66
2021/10/15 17:18:11;;;;;;;9.30;6.40;;;;;;;;;;6242843;22;20015;-66
2021/10/15 17:20:38;;;;;;;15.73;8.88;;;;;;;;;;6244575;22;20054;-65
2021/10/15 17:23:04;;;;;;;10.88;7.53;;;;;;;;;;6244584;23;20014;-65
2021/10/15 17:25:30;;;;;;;10.90;7.10;;;;;;;;;;6244700;22;19996;-66
2021/10/15 17:27:59;;;;;;;11.30;7.72;;;;;;;;;;6244435;23;20425;-66
2021/10/15 17:30:25;;;;;;;10.77;7.53;;;;;;;;;;6244483;22;19996;-66
2021/10/15 17:32:51;;;;;;;9.85;6.93;;;;;;;;;;6244741;23;20078;-66
2021/10/15 17:35:17;;;;;;;12.45;8.38;;;;;;;;;;6242777;23;19996;-66
2021/10/15 17:37:43;;;;;;;9.48;6.82;;;;;;;;;;6244794;22;20007;-66
2021/10/15 17:40:12;;;;;;;10.80;6.80;;;;;;;;;;6242241;23;20050;-66
2021/10/15 17:42:39;;;;;;;9.55;6.90;;;;;;;;;;6242605;23;20384;-66
2021/10/15 17:45:05;;;;;;;8.88;6.38;;;;;;;;;;6243991;22;19999;-66
2021/10/15 17:47:32;;;;;;;9.20;6.93;;;;;;;;;;6242682;23;20373;-66
2021/10/15 17:49:57;;;;;;;9.48;6.50;;;;;;;;;;6243931;22;20435;-66
2021/10/15 17:52:23;;;;;;;9.50;5.95;;;;;;;;;;6243486;23;20020;-66
2021/10/15 17:54:50;;;;;;;9.18;6.95;;;;;;;;;;6241892;23;20506;-66
2021/10/15 17:57:15;;;;;;;10.07;6.28;;;;;;;;;;6243679;22;20012;-66
2021/10/15 17:59:41;;;;;;;12.55;7.57;;;;;;;;;;6242393;23;20004;-66
2021/10/15 18:02:07;;;;;;;12.02;7.28;;;;;;;;;;6243672;22;19996;-66
2021/10/15 18:04:33;;;;;;;10.15;7.32;;;;;;;;;;6241345;23;20344;-66
2021/10/15 18:06:59;;;;;;;9.85;7.32;;;;;;;;;;6243936;22;20003;-66
2021/10/15 18:09:25;;;;;;;11.00;7.80;;;;;;;;;;6243651;23;20008;-66
2021/10/15 18:11:51;;;;;;;10.27;7.65;;;;;;;;;;6243499;22;20000;-66
2021/10/15 18:14:17;;;;;;;11.00;8.15;;;;;;;;;;6243227;23;20008;-65
2021/10/15 18:16:43;;;;;;;12.35;8.25;;;;;;;;;;6243151;22;20080;-66
2021/10/15 18:19:09;;;;;;;11.75;8.20;;;;;;;;;;6243658;23;20338;-66
2021/10/15 18:21:37;;;;;;;10.38;6.82;;;;;;;;;;6244239;22;20000;-65
2021/10/15 18:24:03;;;;;;;11.60;7.30;;;;;;;;;;6243313;22;20065;-65
2021/10/15 18:26:29;;;;;;;11.65;7.07;;;;;;;;;;6243403;22;20001;-65
2021/10/15 18:28:55;;;;;;;11.10;6.82;;;;;;;;;;6243945;23;20429;-65
2021/10/15 18:31:20;;;;;;;9.70;6.70;;;;;;;;;;6243846;22;19996;-65
2021/10/15 18:33:46;;;;;;;13.13;8.50;;;;;;;;;;6241835;23;20095;-61
2021/10/15 18:36:12;;;;;;;11.27;7.30;;;;;;;;;;6239308;23;20144;-61
2021/10/15 18:38:40;;;;;;;12.52;8.35;;;;;;;;;;6240954;23;20011;-61
2021/10/15 18:41:05;;;;;;;13.95;9.15;;;;;;;;;;6241146;22;20000;-60
2021/10/15 18:43:31;;;;;;;12.85;8.38;;;;;;;;;;6240862;23;20019;-60
2021/10/15 18:45:57;;;;;;;11.43;7.60;;;;;;;;;;6240987;23;20618;-60
2021/10/15 18:48:23;;;;;;;16.20;9.00;;;;;;;;;;6241186;22;20008;-61
2021/10/15 18:50:51;;;;;;;17.70;9.20;;;;;;;;;;6240601;22;19997;-61
2021/10/15 18:53:17;;;;;;;15.57;8.75;;;;;;;;;;6240279;23;20012;-61
2021/10/15 18:55:43;;;;;;;15.02;8.35;;;;;;;;;;6239074;23;20008;-60
2021/10/15 18:58:09;;;;;;;20.98;8.60;;;;;;;;;;6240521;22;20016;-61
2021/10/15 19:00:35;;;;;;;19.73;11.23;;;;;;;;;;6241113;22;20000;-61
2021/10/15 19:03:00;;;;;;;20.23;11.90;;;;;;;;;;6240766;23;20012;-61
2021/10/15 19:05:27;;;;;;;16.02;9.45;;;;;;;;;;6240875;22;20698;-61
2021/10/15 19:07:52;;;;;;;18.58;11.07;;;;;;;;;;6240672;22;20004;-61
2021/10/15 19:10:18;;;;;;;20.48;12.57;;;;;;;;;;6240925;23;20762;-60
2021/10/15 19:12:49;;;;;;;27.20;14.35;;;;;;;;;;6241197;22;20531;-60
2021/10/15 19:15:15;;;;;;;27.02;14.88;;;;;;;;;;6239916;23;20015;-60
2021/10/15 19:17:44;;;;;;;27.15;12.00;;;;;;;;;;6245815;22;20000;-61
2021/10/15 19:20:10;;;;;;;26.85;12.73;;;;;;;;;;6245883;22;20008;-60
2021/10/15 19:22:36;;;;;;;23.98;12.38;;;;;;;;;;6245846;22;20000;-60
2021/10/15 19:25:03;;;;;;;23.90;13.45;;;;;;;;;;6244135;23;20499;-61
2021/10/15 19:27:29;;;;;;;24.02;12.95;;;;;;;;;;6246045;22;19993;-60
2021/10/15 19:29:55;;;;;;;26.77;13.95;;;;;;;;;;6247410;22;20004;-60
2021/10/15 19:32:20;;;;;;;25.30;14.20;;;;;;;;;;6247817;23;20127;-60
2021/10/15 19:34:46;;;;;;;26.45;13.63;;;;;;;;;;6247673;23;20004;-60
2021/10/15 19:37:11;;;;;;;24.95;11.90;;;;;;;;;;6247842;22;20391;-60
2021/10/15 19:39:38;;;;;;;25.13;12.02;;;;;;;;;;6247878;22;20367;-60
2021/10/15 19:42:05;;;;;;;20.55;11.13;;;;;;;;;;6246058;23;19997;-60
2021/10/15 19:44:30;;;;;;;16.98;10.35;;;;;;;;;;6247263;23;20004;-60
2021/10/15 19:46:56;;;;;;;19.15;9.63;;;;;;;;;;6247207;22;20049;-61
2021/10/15 19:49:22;;;;;;;16.02;9.75;;;;;;;;;;6247152;22;20425;-67
2021/10/15 19:51:48;;;;;;;19.30;9.80;;;;;;;;;;6246808;22;20364;-67
2021/10/15 19:54:13;;;;;;;22.83;11.10;;;;;;;;;;6216890;23;20467;-60
2021/10/15 19:56:39;;;;;;;14.80;9.18;;;;;;;;;;6216720;23;20008;-61
2021/10/15 19:59:06;;;;;;;17.00;11.43;;;;;;;;;;6190032;23;20425;-60
2021/10/15 20:01:31;;;;;;;17.73;10.68;;;;;;;;;;6215786;23;20004;-61
2021/10/15 20:03:57;;;;;;;18.20;10.10;;;;;;;;;;6217227;23;20000;-60
2021/10/15 20:06:22;;;;;;;19.83;10.60;;;;;;;;;;6217047;23;20051;-60
2021/10/15 20:08:50;;;;;;;14.32;9.27;;;;;;;;;;6217154;23;20425;-60
2021/10/15 20:11:15;;;;;;;18.65;10.77;;;;;;;;;;6216813;23;20012;-61
2021/10/15 20:13:41;;;;;;;18.90;10.85;;;;;;;;;;6216810;23;20009;-60
2021/10/15 20:16:08;;;;;;;15.75;9.57;;;;;;;;;;6216950;23;19996;-60
2021/10/15 20:18:34;;;;;;;15.13;9.77;;;;;;;;;;6216947;23;20015;-60
2021/10/15 20:21:00;;;;;;;18.30;9.85;;;;;;;;;;6216974;23;20004;-60
2021/10/15 20:23:26;;;;;;;16.75;10.15;;;;;;;;;;6190240;23;20016;-60
2021/10/15 20:25:52;;;;;;;14.95;9.32;;;;;;;;;;6217084;23;20327;-60
2021/10/15 20:28:18;;;;;;;14.85;9.52;;;;;;;;;;6216744;23;20025;-60
2021/10/15 20:30:44;;;;;;;15.60;10.23;;;;;;;;;;6216691;23;20023;-60
2021/10/15 20:33:15;;;;;;;15.85;9.15;;;;;;;;;;6216733;23;20047;-60
2021/10/15 20:35:44;;;;;;;14.90;9.10;;;;;;;;;;6216533;23;20008;-65
2021/10/15 20:38:10;;;;;;;15.38;9.57;;;;;;;;;;6216953;23;20043;-65
2021/10/15 20:40:36;;;;;;;13.20;9.50;;;;;;;;;;6216894;23;20036;-65
2021/10/15 20:43:05;;;;;;;14.85;9.25;;;;;;;;;;6216520;23;20311;-65
2021/10/15 20:45:31;;;;;;;14.45;9.18;;;;;;;;;;6190225;23;20033;-65
2021/10/15 20:47:57;;;;;;;12.93;8.07;;;;;;;;;;6216436;23;20325;-65
2021/10/15 20:50:22;;;;;;;13.80;8.93;;;;;;;;;;6216917;23;20011;-65
2021/10/15 20:52:48;;;;;;;14.50;8.80;;;;;;;;;;6228579;23;20008;-65
2021/10/15 20:55:14;;;;;;;15.38;9.00;;;;;;;;;;6246910;23;20008;-65
2021/10/15 20:57:41;;;;;;;14.88;8.85;;;;;;;;;;6247437;22;20417;-65
2021/10/15 21:00:07;;;;;;;15.43;9.48;;;;;;;;;;6247313;22;20004;-65
2021/10/15 21:02:33;;;;;;;13.63;8.48;;;;;;;;;;6246773;22;20475;-65
2021/10/15 21:04:59;;;;;;;14.60;9.20;;;;;;;;;;6247111;22;20004;-60
2021/10/15 21:07:24;;;;;;;14.80;8.00;;;;;;;;;;6246838;23;20001;-60
2021/10/15 21:09:51;;;;;;;13.88;9.15;;;;;;;;;;6247158;23;20073;-60
2021/10/15 21:12:17;;;;;;;13.57;8.30;;;;;;;;;;6245381;23;20000;-60
2021/10/15 21:14:42;;;;;;;12.32;8.43;;;;;;;;;;6246610;22;20482;-60
2021/10/15 21:17:08;;;;;;;12.35;8.57;;;;;;;;;;6246934;22;19996;-60
2021/10/15 21:19:34;;;;;;;12.60;8.95;;;;;;;;;;6246197;23;20383;-60
2021/10/15 21:21:59;;;;;;;15.25;8.85;;;;;;;;;;6247110;22;20083;-66
2021/10/15 21:24:30;;;;;;;15.35;9.10;;;;;;;;;;6246841;22;20004;-66
2021/10/15 21:26:55;;;;;;;18.23;10.00;;;;;;;;;;6245113;23;20011;-65
2021/10/15 21:29:24;;;;;;;15.68;10.38;;;;;;;;;;6246268;22;20004;-65
2021/10/15 21:31:50;;;;;;;17.15;9.70;;;;;;;;;;6246402;23;20011;-65
2021/10/15 21:34:16;;;;;;;12.38;7.82;;;;;;;;;;6245946;22;20432;-63
2021/10/15 21:36:41;;;;;;;10.82;8.48;;;;;;;;;;6246389;23;20004;-64
2021/10/15 21:39:07;;;;;;;13.60;8.90;;;;;;;;;;6246425;23;20024;-64
2021/10/15 21:41:33;;;;;;;12.80;9.32;;;;;;;;;;6244701;23;20014;-64
2021/10/15 21:44:00;;;;;;;11.63;8.10;;;;;;;;;;6246519;22;19992;-66
2021/10/15 21:46:25;;;;;;;11.80;8.10;;;;;;;;;;6246409;23;20004;-60
2021/10/15 21:48:51;;;;;;;12.70;8.30;;;;;;;;;;6246685;22;20067;-60
2021/10/15 21:51:18;;;;;;;11.40;8.50;;;;;;;;;;6246244;22;20004;-61
2021/10/15 21:53:43;;;;;;;9.73;7.57;;;;;;;;;;6266245;22;20016;-61
2021/10/15 21:56:13;;;;;;;12.13;7.20;;;;;;;;;;6247091;22;20031;-61
2021/10/15 21:58:39;;;;;;;10.93;8.05;;;;;;;;;;6246299;22;20008;-61
2021/10/15 22:01:04;;;;;;;11.77;7.72;;;;;;;;;;6246257;22;20008;-60
2021/10/15 22:03:30;;;;;;;11.57;7.50;;;;;;;;;;6246085;23;20004;-60
2021/10/15 22:05:55;;;;;;;9.40;6.90;;;;;;;;;;6246122;22;20047;-66
2021/10/15 22:08:21;;;;;;;9.48;7.53;;;;;;;;;;6246161;22;20455;-66
2021/10/15 22:10:46;;;;;;;11.07;7.35;;;;;;;;;;6244500;23;20000;-66
2021/10/15 22:13:12;;;;;;;10.15;7.40;;;;;;;;;;6244706;23;19996;-66
2021/10/15 22:15:44;;;;;;;9.27;6.53;;;;;;;;;;6244307;23;20504;-67
2021/10/15 22:18:09;;;;;;;9.15;7.05;;;;;;;;;;6244678;23;20004;-66
2021/10/15 22:20:44;;;;;;;10.10;8.23;;;;;;;;;;6246310;22;20002;-67
2021/10/15 22:23:17;;;;;;;11.98;8.52;;;;;;;;;;6243597;23;20008;-66
2021/10/15 22:25:43;;;;;;;6.97;6.05;;;;;;;;;;6246424;22;20026;-66
2021/10/15 22:28:09;;;;;;;7.35;6.50;;;;;;;;;;6246125;22;20079;-66
2021/10/15 22:30:34;;;;;;;8.43;6.35;;;;;;;;;;6244526;23;20064;-65
2021/10/15 22:33:00;;;;;;;6.97;5.60;;;;;;;;;;6246185;23;20049;-65
2021/10/15 22:35:25;;;;;;;6.57;5.40;;;;;;;;;;6245785;22;20017;-59
2021/10/15 22:37:51;;;;;;;10.23;7.93;;;;;;;;;;6246088;23;20142;-60
2021/10/15 22:40:17;;;;;;;5.38;4.85;;;;;;;;;;6246145;23;20015;-60
2021/10/15 22:42:42;;;;;;;6.25;4.30;;;;;;;;;;6246270;22;20003;-59
2021/10/15 22:45:09;;;;;;;6.45;4.72;;;;;;;;;;6246122;23;20372;-60
2021/10/15 22:47:35;;;;;;;4.50;4.10;;;;;;;;;;6246272;22;20344;-60
2021/10/15 22:50:00;;;;;;;4.50;3.92;;;;;;;;;;6244443;23;20008;-60
2021/10/15 22:52:26;;;;;;;6.30;4.10;;;;;;;;;;6244380;23;20011;-60
2021/10/15 22:54:52;;;;;;;5.95;4.60;;;;;;;;;;6245655;22;20008;-60
2021/10/15 22:57:18;;;;;;;6.28;4.15;;;;;;;;;;6246042;23;20336;-60
2021/10/15 22:59:44;;;;;;;5.43;4.25;;;;;;;;;;6244397;23;20012;-60
2021/10/15 23:02:10;;;;;;;2.88;2.67;;;;;;;;;;6246001;22;20001;-60
2021/10/15 23:04:36;;;;;;;3.78;2.85;;;;;;;;;;6247173;23;20022;-60
2021/10/15 23:07:02;;;;;;;2.85;2.65;;;;;;;;;;6246442;23;20000;-60
2021/10/15 23:09:28;;;;;;;3.17;2.75;;;;;;;;;;6248097;23;20004;-61
2021/10/15 23:11:54;;;;;;;3.88;2.78;;;;;;;;;;6247865;22;20039;-61
2021/10/15 23:14:20;;;;;;;3.60;2.63;;;;;;;;;;6247683;23;20091;-61
2021/10/15 23:16:46;;;;;;;4.30;3.00;;;;;;;;;;6247913;22;20000;-60
2021/10/15 23:19:12;;;;;;;6.35;3.13;;;;;;;;;;6247852;23;20030;-61
2021/10/15 23:21:38;;;;;;;3.42;2.55;;;;;;;;;;6246360;23;20070;-60
2021/10/15 23:24:04;;;;;;;2.45;2.08;;;;;;;;;;6247862;22;20011;-60
2021/10/15 23:26:29;;;;;;;2.10;1.90;;;;;;;;;;6247739;22;20007;-61